Time;durP1;ratioP1;P1;durP2;ratioP2;P2;SDS_P1;SDS_P2;PMS_P1;PMS_P2;Temp;Humidity;BMP_temperature;BMP_pressure;BME280_temperature;BME280_humidity;BME280_pressure;Samples;Min_cycle;Max_cycle;Signal;HPM_P1;HPM_P2
2023/07/14 00:00:19;;;;;;;0.30;0.30;;;15.70;99.90;;;;;;5093749;28;20078;-75
2023/07/14 00:02:47;;;;;;;0.30;0.30;;;15.70;99.90;;;;;;5093906;28;20047;-76
2023/07/14 00:05:19;;;;;;;0.40;0.40;;;15.70;99.90;;;;;;5093778;28;20434;-75
2023/07/14 00:07:48;;;;;;;0.40;0.40;;;15.60;99.90;;;;;;5093758;28;20118;-77
2023/07/14 00:10:30;;;;;;;0.32;0.32;;;15.60;99.90;;;;;;5093685;28;20036;-77
2023/07/14 00:12:58;;;;;;;0.40;0.40;;;15.60;99.90;;;;;;5094057;28;20172;-77
2023/07/14 00:15:24;;;;;;;0.47;0.47;;;15.60;99.90;;;;;;5093599;28;20040;-77
2023/07/14 00:18:04;;;;;;;0.60;0.60;;;15.50;99.90;;;;;;5093250;28;20051;-75
2023/07/14 00:20:32;;;;;;;0.45;0.45;;;15.50;99.90;;;;;;5093536;28;20137;-76
2023/07/14 00:22:58;;;;;;;0.50;0.40;;;15.50;99.90;;;;;;5093537;28;20047;-75
2023/07/14 00:25:25;;;;;;;0.40;0.40;;;15.40;99.90;;;;;;5093608;28;20044;-76
2023/07/14 00:27:54;;;;;;;0.40;0.40;;;15.40;99.90;;;;;;5093534;28;20066;-76
2023/07/14 00:30:25;;;;;;;0.52;0.52;;;15.30;99.90;;;;;;5093222;28;20476;-76
2023/07/14 00:32:54;;;;;;;0.30;0.30;;;15.30;99.90;;;;;;5093515;28;20036;-77
2023/07/14 00:35:28;;;;;;;0.40;0.40;;;15.30;99.90;;;;;;5093473;28;20040;-75
2023/07/14 00:37:57;;;;;;;0.50;0.50;;;15.30;99.90;;;;;;5095578;28;20168;-78
2023/07/14 00:40:30;;;;;;;0.30;0.30;;;15.30;99.90;;;;;;5097308;28;20040;-78
2023/07/14 00:42:58;;;;;;;0.50;0.50;;;15.30;99.90;;;;;;5096585;28;20089;-77
2023/07/14 00:45:26;;;;;;;0.77;0.47;;;15.30;99.90;;;;;;5097227;28;20047;-73
2023/07/14 00:47:57;;;;;;;0.30;0.30;;;15.30;99.90;;;;;;5096080;28;20380;-75
2023/07/14 00:50:29;;;;;;;0.32;0.32;;;15.20;99.90;;;;;;5097522;28;20083;-76
2023/07/14 00:52:58;;;;;;;0.47;0.47;;;15.20;99.90;;;;;;5097261;28;20141;-73
2023/07/14 00:55:26;;;;;;;0.40;0.40;;;15.20;99.90;;;;;;5097579;28;20048;-73
2023/07/14 00:57:54;;;;;;;0.30;0.30;;;15.20;99.90;;;;;;5097229;28;20071;-74
2023/07/14 01:00:32;;;;;;;0.38;0.38;;;15.20;99.90;;;;;;5096606;28;20044;-76
2023/07/14 01:02:59;;;;;;;0.30;0.30;;;15.10;99.90;;;;;;5096988;28;20086;-75
2023/07/14 01:05:27;;;;;;;0.45;0.45;;;15.10;99.90;;;;;;5096889;28;20048;-74
2023/07/14 01:07:54;;;;;;;0.35;0.35;;;15.00;99.90;;;;;;5096923;28;20047;-77
2023/07/14 01:10:23;;;;;;;0.40;0.30;;;15.00;99.90;;;;;;5096839;28;20085;-75
2023/07/14 01:12:57;;;;;;;0.30;0.30;;;15.00;99.90;;;;;;5096724;28;20065;-77
2023/07/14 01:15:26;;;;;;;0.40;0.40;;;14.90;99.90;;;;;;5096729;28;20167;-77
2023/07/14 01:17:53;;;;;;;0.30;0.30;;;14.90;99.90;;;;;;5096591;28;20040;-75
2023/07/14 01:20:20;;;;;;;0.30;0.30;;;14.90;99.90;;;;;;5096722;28;20044;-77
2023/07/14 01:23:14;;;;;;;0.40;0.40;;;14.90;99.90;;;;;;5096567;28;20392;-76
2023/07/14 01:25:57;;;;;;;0.40;0.40;;;14.90;99.90;;;;;;5096644;28;20036;-76
2023/07/14 01:28:23;;;;;;;0.30;0.30;;;14.90;99.90;;;;;;5097010;28;20122;-78
2023/07/14 01:30:49;;;;;;;1.70;0.60;;;14.80;99.90;;;;;;5096492;28;20044;-75
2023/07/14 01:33:17;;;;;;;0.30;0.30;;;14.90;99.90;;;;;;5096516;28;20036;-77
2023/07/14 01:35:48;;;;;;;0.30;0.30;;;14.80;99.90;;;;;;5096350;28;20047;-77
2023/07/14 01:38:15;;;;;;;0.40;0.40;;;14.80;99.90;;;;;;5096866;28;20123;-72
2023/07/14 01:40:41;;;;;;;0.47;0.47;;;14.80;99.90;;;;;;5096589;28;20564;-76
2023/07/14 01:43:10;;;;;;;0.30;0.30;;;14.80;99.90;;;;;;5096308;28;20132;-74
2023/07/14 01:45:50;;;;;;;0.45;0.45;;;14.80;99.90;;;;;;5096169;28;20423;-77
2023/07/14 01:48:21;;;;;;;0.50;0.50;;;14.80;99.90;;;;;;5095681;28;20032;-77
2023/07/14 01:50:54;;;;;;;0.57;0.50;;;14.80;99.90;;;;;;5096570;28;20123;-76
2023/07/14 01:53:35;;;;;;;0.30;0.30;;;14.80;99.90;;;;;;5096126;28;20046;-75
2023/07/14 01:56:05;;;;;;;1.17;0.75;;;14.70;99.90;;;;;;5096041;28;20108;-75
2023/07/14 01:58:37;;;;;;;0.30;0.30;;;14.70;99.90;;;;;;5096121;28;20048;-77
2023/07/14 02:01:05;;;;;;;0.38;0.38;;;14.70;99.90;;;;;;5095972;28;20081;-77
2023/07/14 02:03:41;;;;;;;0.20;0.20;;;14.70;99.90;;;;;;5096269;28;20380;-73
2023/07/14 02:06:07;;;;;;;0.30;0.30;;;14.70;99.90;;;;;;5095660;28;20055;-75
2023/07/14 02:08:33;;;;;;;0.30;0.30;;;14.70;99.90;;;;;;5095778;28;20051;-76
2023/07/14 02:10:59;;;;;;;0.50;0.50;;;14.70;99.90;;;;;;5095828;28;20075;-76
2023/07/14 02:13:26;;;;;;;0.30;0.30;;;14.70;99.90;;;;;;5095628;28;20044;-76
2023/07/14 02:15:53;;;;;;;0.40;0.40;;;14.70;99.90;;;;;;5095488;28;20282;-77
2023/07/14 02:18:25;;;;;;;0.60;0.50;;;14.70;99.90;;;;;;5095841;28;20119;-76
2023/07/14 02:20:53;;;;;;;0.40;0.40;;;14.60;99.90;;;;;;5095532;28;20468;-75
2023/07/14 02:23:21;;;;;;;1.73;0.82;;;14.60;99.90;;;;;;5095620;28;20431;-75
2023/07/14 02:26:17;;;;;;;0.63;0.30;;;14.60;99.90;;;;;;5095352;28;20086;-77
2023/07/14 02:28:43;;;;;;;0.30;0.30;;;14.70;99.90;;;;;;5077502;28;20056;-77
2023/07/14 02:31:19;;;;;;;0.40;0.40;;;14.60;99.90;;;;;;5095299;28;20420;-76
2023/07/14 02:33:48;;;;;;;0.53;0.53;;;14.60;99.90;;;;;;5095502;28;20130;-75
2023/07/14 02:36:38;;;;;;;4.68;0.60;;;14.50;99.90;;;;;;5095169;28;20044;-74
2023/07/14 02:39:04;;;;;;;0.30;0.30;;;14.50;99.90;;;;;;5095195;28;20050;-75
2023/07/14 02:41:37;;;;;;;0.40;0.40;;;14.50;99.90;;;;;;5094939;28;20040;-75
2023/07/14 02:44:05;;;;;;;0.32;0.32;;;14.40;99.90;;;;;;5094924;28;20372;-73
2023/07/14 02:46:42;;;;;;;0.50;0.50;;;14.40;99.90;;;;;;5095024;28;20040;-73
2023/07/14 02:49:08;;;;;;;0.45;0.45;;;14.50;99.90;;;;;;5095280;28;20040;-72
2023/07/14 02:51:34;;;;;;;1.40;0.68;;;14.40;99.90;;;;;;5094903;28;20104;-73
2023/07/14 02:54:00;;;;;;;0.50;0.50;;;14.40;99.90;;;;;;5095126;28;20040;-74
2023/07/14 02:56:26;;;;;;;0.40;0.40;;;14.40;99.90;;;;;;5095096;28;20044;-74
2023/07/14 02:58:52;;;;;;;0.30;0.30;;;14.40;99.90;;;;;;5093476;28;20039;-72
2023/07/14 03:01:19;;;;;;;0.57;0.57;;;14.40;99.90;;;;;;5093955;28;20380;-73
2023/07/14 03:03:46;;;;;;;0.40;0.40;;;14.30;99.90;;;;;;5094565;28;20127;-73
2023/07/14 03:06:14;;;;;;;0.40;0.40;;;14.30;99.90;;;;;;5094658;28;20047;-75
2023/07/14 03:08:40;;;;;;;0.30;0.30;;;14.30;99.90;;;;;;5094565;28;20040;-72
2023/07/14 03:11:06;;;;;;;0.40;0.40;;;14.30;99.90;;;;;;5094491;28;20479;-74
2023/07/14 03:13:34;;;;;;;2.63;0.50;;;14.30;99.90;;;;;;5094418;28;20122;-74
2023/07/14 03:16:00;;;;;;;0.40;0.40;;;14.30;99.90;;;;;;5094463;28;20411;-73
2023/07/14 03:18:26;;;;;;;0.30;0.30;;;14.30;99.90;;;;;;5094768;28;20088;-72
2023/07/14 03:21:03;;;;;;;0.40;0.40;;;14.30;99.90;;;;;;5094332;28;20035;-73
2023/07/14 03:23:29;;;;;;;0.40;0.40;;;14.30;99.90;;;;;;5094775;28;20043;-72
2023/07/14 03:26:07;;;;;;;0.57;0.57;;;14.30;99.90;;;;;;5094234;28;20323;-76
2023/07/14 03:28:34;;;;;;;0.30;0.30;;;14.40;99.90;;;;;;5094255;28;20028;-75
2023/07/14 03:31:03;;;;;;;0.38;0.38;;;14.40;99.90;;;;;;5094092;28;20036;-73
2023/07/14 03:33:30;;;;;;;0.30;0.30;;;14.40;99.90;;;;;;5093622;28;20164;-75
2023/07/14 03:36:04;;;;;;;0.40;0.40;;;14.40;99.90;;;;;;5094074;28;20044;-76
2023/07/14 03:38:30;;;;;;;0.30;0.30;;;14.40;99.90;;;;;;5093986;28;20077;-77
2023/07/14 03:40:56;;;;;;;0.32;0.32;;;14.50;99.90;;;;;;5094073;28;20126;-76
2023/07/14 03:43:21;;;;;;;0.40;0.40;;;14.50;99.90;;;;;;5094020;28;20123;-74
2023/07/14 03:45:47;;;;;;;0.30;0.30;;;14.50;99.90;;;;;;5094133;28;20051;-74
2023/07/14 03:48:13;;;;;;;0.40;0.40;;;14.50;99.90;;;;;;5094335;28;20510;-76
2023/07/14 03:50:38;;;;;;;0.50;0.50;;;14.60;99.90;;;;;;5094283;28;20032;-78
2023/07/14 03:53:04;;;;;;;0.60;0.60;;;14.50;99.90;;;;;;5092038;28;20066;-78
2023/07/14 03:55:32;;;;;;;0.90;0.90;;;14.60;99.90;;;;;;5093282;28;20484;-76
2023/07/14 03:57:57;;;;;;;0.30;0.30;;;14.60;99.90;;;;;;5093425;28;20032;-77
2023/07/14 04:00:23;;;;;;;0.30;0.30;;;14.60;99.90;;;;;;5093480;28;20200;-75
2023/07/14 04:02:49;;;;;;;0.50;0.50;;;14.60;99.90;;;;;;5093702;28;20493;-77
2023/07/14 04:05:15;;;;;;;0.40;0.40;;;14.70;99.90;;;;;;5093492;28;20627;-76
2023/07/14 04:07:42;;;;;;;0.55;0.55;;;14.70;99.90;;;;;;5093453;28;20380;-75
2023/07/14 04:10:09;;;;;;;0.30;0.30;;;14.70;99.90;;;;;;5093282;28;20426;-77
2023/07/14 04:12:35;;;;;;;;;;;14.80;99.90;;;;;;5095396;28;20044;-78
2023/07/14 04:15:01;;;;;;;0.40;0.40;;;14.70;99.90;;;;;;5097900;28;19922;-75
2023/07/14 04:17:29;;;;;;;0.30;0.30;;;14.70;99.90;;;;;;5097567;28;20096;-76
2023/07/14 04:19:55;;;;;;;0.40;0.40;;;14.70;99.90;;;;;;5097789;28;20094;-77
2023/07/14 04:22:21;;;;;;;0.68;0.68;;;14.70;99.90;;;;;;5096458;28;20040;-77
2023/07/14 04:24:47;;;;;;;0.40;0.40;;;14.80;99.90;;;;;;5097687;28;20047;-75
2023/07/14 04:27:13;;;;;;;0.40;0.40;;;14.80;99.90;;;;;;5097061;28;20036;-75
2023/07/14 04:29:40;;;;;;;0.57;0.57;;;14.80;99.90;;;;;;5097815;28;20036;-76
2023/07/14 04:32:06;;;;;;;0.40;0.40;;;14.80;99.90;;;;;;5097446;28;20044;-76
2023/07/14 04:34:33;;;;;;;0.47;0.43;;;14.90;99.90;;;;;;5097537;28;20040;-75
2023/07/14 04:36:59;;;;;;;0.95;0.63;;;14.90;99.90;;;;;;5097430;28;20082;-77
2023/07/14 04:39:25;;;;;;;0.30;0.30;;;14.90;99.90;;;;;;5097169;28;20044;-76
2023/07/14 04:41:52;;;;;;;0.30;0.30;;;14.90;99.90;;;;;;5096634;28;20503;-76
2023/07/14 04:44:18;;;;;;;0.50;0.50;;;15.00;99.90;;;;;;5097167;28;20090;-76
2023/07/14 04:46:45;;;;;;;0.30;0.30;;;15.00;99.90;;;;;;5097161;28;20036;-75
2023/07/14 04:49:11;;;;;;;;;;;15.10;99.90;;;;;;5097408;28;20033;-77
2023/07/14 04:51:37;;;;;;;0.40;0.40;;;15.10;99.90;;;;;;5097071;28;19916;-77
2023/07/14 04:54:04;;;;;;;0.50;0.50;;;15.20;99.90;;;;;;5097070;28;20051;-77
2023/07/14 04:56:30;;;;;;;;;;;15.30;99.90;;;;;;5097161;28;20039;-74
2023/07/14 04:58:56;;;;;;;0.73;0.70;;;15.40;99.90;;;;;;5095871;28;19916;-75
2023/07/14 05:01:22;;;;;;;0.40;0.40;;;15.50;99.90;;;;;;5097027;28;20341;-76
2023/07/14 05:03:48;;;;;;;0.45;0.45;;;15.60;99.90;;;;;;5096960;28;20050;-78
2023/07/14 05:06:14;;;;;;;1.07;0.47;;;15.60;99.90;;;;;;5096690;28;20472;-74
2023/07/14 05:08:40;;;;;;;0.30;0.30;;;15.70;99.90;;;;;;5096617;28;20471;-75
2023/07/14 05:11:06;;;;;;;0.68;0.57;;;15.90;99.90;;;;;;5096166;28;20612;-77
2023/07/14 05:13:32;;;;;;;0.47;0.47;;;16.00;99.90;;;;;;5096647;28;20118;-74
2023/07/14 05:15:58;;;;;;;0.40;0.40;;;16.10;99.90;;;;;;5096568;28;20078;-77
2023/07/14 05:18:25;;;;;;;0.40;0.40;;;16.20;99.90;;;;;;5096595;28;20047;-74
2023/07/14 05:20:52;;;;;;;0.32;0.32;;;16.30;99.90;;;;;;5096328;28;20047;-73
2023/07/14 05:23:18;;;;;;;0.30;0.30;;;16.30;99.90;;;;;;5095861;28;20375;-75
2023/07/14 05:25:45;;;;;;;0.40;0.40;;;16.40;99.90;;;;;;5096116;28;20044;-75
2023/07/14 05:28:10;;;;;;;;;;;16.40;99.90;;;;;;5096404;28;20630;-75
2023/07/14 05:30:37;;;;;;;0.47;0.47;;;16.40;99.90;;;;;;5096285;28;19922;-73
2023/07/14 05:33:04;;;;;;;0.40;0.40;;;16.30;99.90;;;;;;5096176;28;20043;-75
2023/07/14 05:35:30;;;;;;;0.40;0.40;;;16.30;99.90;;;;;;5096300;28;20289;-75
2023/07/14 05:37:56;;;;;;;0.85;0.50;;;16.20;99.90;;;;;;5096197;28;20356;-77
2023/07/14 05:40:23;;;;;;;0.50;0.50;;;16.20;99.90;;;;;;5095564;28;20039;-75
2023/07/14 05:42:49;;;;;;;0.68;0.43;;;16.20;99.90;;;;;;5096152;28;20432;-77
2023/07/14 05:45:15;;;;;;;0.50;0.50;;;16.10;99.90;;;;;;5096048;28;20079;-76
2023/07/14 05:47:45;;;;;;;0.30;0.30;;;16.10;99.90;;;;;;5095918;28;20040;-76
2023/07/14 05:50:10;;;;;;;0.30;0.30;;;16.20;99.90;;;;;;5095809;28;20368;-76
2023/07/14 05:52:36;;;;;;;0.30;0.30;;;16.20;99.90;;;;;;5095808;28;20119;-75
2023/07/14 05:55:08;;;;;;;0.50;0.50;;;16.20;99.90;;;;;;5095448;28;20552;-73
2023/07/14 05:57:36;;;;;;;0.20;0.20;;;16.30;99.90;;;;;;5096000;28;20091;-75
2023/07/14 06:00:12;;;;;;;0.30;0.30;;;16.40;99.90;;;;;;5095975;28;20047;-75
2023/07/14 06:02:40;;;;;;;0.57;0.57;;;16.40;99.90;;;;;;5095677;28;20490;-76
2023/07/14 06:05:06;;;;;;;0.30;0.30;;;16.40;99.90;;;;;;5095856;28;20055;-74
2023/07/14 06:07:32;;;;;;;0.45;0.45;;;16.50;99.90;;;;;;5095437;28;20043;-73
2023/07/14 06:09:57;;;;;;;1.10;1.00;;;16.60;99.90;;;;;;5095477;28;20040;-78
2023/07/14 06:12:23;;;;;;;0.60;0.60;;;16.60;99.90;;;;;;5095686;28;20035;-76
2023/07/14 06:14:49;;;;;;;0.70;0.50;;;16.70;99.90;;;;;;5094634;28;20040;-74
2023/07/14 06:17:15;;;;;;;0.77;0.60;;;16.70;99.90;;;;;;5094264;28;20066;-74
2023/07/14 06:19:40;;;;;;;0.43;0.43;;;16.80;99.90;;;;;;5095485;28;20122;-74
2023/07/14 06:22:09;;;;;;;0.37;0.37;;;16.90;99.90;;;;;;5095175;28;20527;-73
2023/07/14 06:24:35;;;;;;;0.30;0.30;;;17.00;99.90;;;;;;5095162;28;20399;-74
2023/07/14 06:27:02;;;;;;;0.40;0.40;;;17.10;99.90;;;;;;5095034;28;20048;-75
2023/07/14 06:29:28;;;;;;;0.30;0.30;;;17.20;99.90;;;;;;5095321;28;20040;-80
2023/07/14 06:31:54;;;;;;;0.93;0.50;;;17.20;99.90;;;;;;5092553;28;20376;-73
2023/07/14 06:34:20;;;;;;;0.50;0.50;;;17.30;99.90;;;;;;5083088;28;20135;-74
2023/07/14 06:36:45;;;;;;;0.67;0.60;;;17.40;99.90;;;;;;5094384;28;20071;-74
2023/07/14 06:39:12;;;;;;;0.37;0.37;;;17.50;99.90;;;;;;5094150;28;20164;-73
2023/07/14 06:41:38;;;;;;;0.50;0.50;;;17.70;99.90;;;;;;5095033;28;20032;-76
2023/07/14 06:44:04;;;;;;;0.77;0.60;;;17.90;99.90;;;;;;5095012;28;20376;-74
2023/07/14 06:46:30;;;;;;;1.17;0.70;;;18.10;99.90;;;;;;5095026;28;20083;-76
2023/07/14 06:48:57;;;;;;;0.60;0.60;;;18.20;99.90;;;;;;5094691;28;20036;-73
2023/07/14 06:51:24;;;;;;;0.30;0.30;;;18.30;99.90;;;;;;5094810;28;20040;-74
2023/07/14 06:53:49;;;;;;;0.35;0.35;;;18.30;99.90;;;;;;5094665;28;20047;-76
2023/07/14 06:56:16;;;;;;;0.50;0.50;;;18.40;99.90;;;;;;5094490;28;20039;-75
2023/07/14 06:58:43;;;;;;;0.50;0.50;;;18.40;99.90;;;;;;5094767;28;20461;-75
2023/07/14 07:01:09;;;;;;;0.38;0.38;;;18.60;99.90;;;;;;5094618;28;20032;-74
2023/07/14 07:03:35;;;;;;;1.27;0.93;;;18.70;99.90;;;;;;5094478;28;20074;-75
2023/07/14 07:06:01;;;;;;;0.50;0.50;;;18.80;99.90;;;;;;5094262;28;20043;-75
2023/07/14 07:08:27;;;;;;;0.50;0.50;;;18.80;99.90;;;;;;5094396;28;20410;-74
2023/07/14 07:10:53;;;;;;;0.60;0.60;;;18.90;99.90;;;;;;5094752;28;20479;-73
2023/07/14 07:13:19;;;;;;;0.40;0.30;;;19.00;99.90;;;;;;5094572;28;20118;-75
2023/07/14 07:15:45;;;;;;;0.75;0.75;;;19.20;99.90;;;;;;5094060;28;20126;-75
2023/07/14 07:18:10;;;;;;;1.27;1.17;;;19.30;99.90;;;;;;5094044;28;20091;-74
2023/07/14 07:20:38;;;;;;;0.60;0.40;;;19.40;99.90;;;;;;5093795;28;20044;-72
2023/07/14 07:23:03;;;;;;;1.42;0.95;;;19.50;99.90;;;;;;5094244;28;20061;-73
2023/07/14 07:25:30;;;;;;;;;;;19.50;99.90;;;;;;5094187;28;20040;-74
2023/07/14 07:27:56;;;;;;;0.70;0.68;;;19.50;99.90;;;;;;5094352;28;19922;-74
2023/07/14 07:30:21;;;;;;;0.67;0.60;;;19.50;99.90;;;;;;5093995;28;20126;-75
2023/07/14 07:32:47;;;;;;;0.70;0.47;;;19.60;99.90;;;;;;5094062;28;20403;-75
2023/07/14 07:35:14;;;;;;;0.50;0.50;;;19.70;99.90;;;;;;5093913;28;20036;-74
2023/07/14 07:37:40;;;;;;;0.55;0.50;;;19.70;99.90;;;;;;5093995;28;20036;-74
2023/07/14 07:40:06;;;;;;;1.03;0.50;;;19.80;99.90;;;;;;5093001;28;20058;-76
2023/07/14 07:42:34;;;;;;;0.30;0.30;;;19.90;99.90;;;;;;5093939;28;20040;-73
2023/07/14 07:45:00;;;;;;;0.35;0.35;;;20.00;99.90;;;;;;5093768;28;20040;-75
2023/07/14 07:47:27;;;;;;;0.35;0.35;;;20.20;99.90;;;;;;5093678;28;20502;-74
2023/07/14 07:49:52;;;;;;;0.40;0.40;;;20.30;99.90;;;;;;5093434;28;20040;-74
2023/07/14 07:52:19;;;;;;;2.40;0.60;;;20.40;99.90;;;;;;5092495;28;20073;-74
2023/07/14 07:54:45;;;;;;;0.50;0.50;;;20.40;99.90;;;;;;5093693;28;20047;-75
2023/07/14 07:57:11;;;;;;;0.60;0.60;;;20.50;99.90;;;;;;5093398;28;20488;-74
2023/07/14 07:59:37;;;;;;;0.35;0.35;;;20.50;99.90;;;;;;5093835;28;20040;-75
2023/07/14 08:02:03;;;;;;;1.00;0.55;;;20.60;99.90;;;;;;5093742;28;20119;-76
2023/07/14 08:04:29;;;;;;;0.40;0.40;;;20.70;99.90;;;;;;5093456;28;20036;-75
2023/07/14 08:06:55;;;;;;;0.27;0.27;;;20.80;99.90;;;;;;5093541;28;20052;-75
2023/07/14 08:09:21;;;;;;;0.20;0.20;;;20.90;99.90;;;;;;5093660;28;20040;-73
2023/07/14 08:11:47;;;;;;;0.30;0.30;;;21.10;99.90;;;;;;5093675;28;20042;-75
2023/07/14 08:14:18;;;;;;;0.30;0.30;;;21.20;99.90;;;;;;5093424;28;20059;-74
2023/07/14 08:16:45;;;;;;;0.40;0.40;;;21.20;99.90;;;;;;5093297;28;20113;-74
2023/07/14 08:19:12;;;;;;;0.30;0.30;;;21.20;99.90;;;;;;5093318;28;20032;-74
2023/07/14 08:21:38;;;;;;;0.50;0.30;;;21.30;99.90;;;;;;5093600;28;20048;-75
2023/07/14 08:24:05;;;;;;;0.30;0.30;;;21.40;99.90;;;;;;5093507;28;20036;-74
2023/07/14 08:26:35;;;;;;;0.45;0.45;;;21.50;99.90;;;;;;5093533;28;20044;-73
2023/07/14 08:29:02;;;;;;;0.20;0.20;;;21.50;99.90;;;;;;5092416;28;20051;-73
2023/07/14 08:31:27;;;;;;;0.40;0.40;;;21.60;99.90;;;;;;5093528;28;20032;-71
2023/07/14 08:33:53;;;;;;;0.30;0.30;;;21.60;99.90;;;;;;5091924;28;20067;-74
2023/07/14 08:36:19;;;;;;;0.20;0.20;;;21.70;99.90;;;;;;5093467;28;20058;-73
2023/07/14 08:38:44;;;;;;;0.40;0.40;;;21.90;99.90;;;;;;5093293;28;20047;-70
2023/07/14 08:41:26;;;;;;;0.60;0.60;;;22.00;99.90;;;;;;5093123;28;20043;-75
2023/07/14 08:44:15;;;;;;;0.30;0.30;;;22.20;99.90;;;;;;5093350;28;20051;-72
2023/07/14 08:46:49;;;;;;;0.50;0.40;;;22.30;99.90;;;;;;5093262;28;20074;-70
2023/07/14 08:49:22;;;;;;;0.30;0.30;;;22.30;99.90;;;;;;5093061;28;20043;-72
2023/07/14 08:52:03;;;;;;;0.43;0.43;;;22.20;99.90;;;;;;5093267;28;20106;-71
2023/07/14 08:54:46;;;;;;;0.30;0.30;;;22.20;99.90;;;;;;5093289;28;20076;-70
2023/07/14 08:57:23;;;;;;;0.20;0.20;;;22.00;99.90;;;;;;5093033;28;20386;-71
2023/07/14 08:59:54;;;;;;;0.50;0.50;;;21.80;99.90;;;;;;5096347;28;20074;-70
2023/07/14 09:02:36;;;;;;;0.30;0.30;;;21.70;99.90;;;;;;5096528;28;20040;-70
2023/07/14 09:05:18;;;;;;;0.20;0.20;;;21.50;99.90;;;;;;5076709;28;20540;-73
2023/07/14 09:07:45;;;;;;;0.20;0.20;;;21.30;99.90;;;;;;5076512;28;20097;-74
2023/07/14 09:10:12;;;;;;;;;;;21.10;99.90;;;;;;5076596;28;20553;-73
2023/07/14 09:13:06;;;;;;;0.30;0.30;;;20.90;99.90;;;;;;5076521;28;19939;-72
2023/07/14 09:15:33;;;;;;;1.40;0.30;;;20.80;99.90;;;;;;5076107;28;20053;-73
2023/07/14 09:18:35;;;;;;;0.30;0.30;;;20.80;99.90;;;;;;5076275;28;20040;-72
2023/07/14 09:21:23;;;;;;;0.20;0.20;;;20.60;99.90;;;;;;5076084;28;20040;-72
2023/07/14 09:24:19;;;;;;;0.20;0.20;;;20.60;99.90;;;;;;5076339;28;20095;-73
2023/07/14 09:26:51;;;;;;;0.40;0.40;;;20.60;99.90;;;;;;5076157;28;20044;-73
2023/07/14 09:29:32;;;;;;;0.30;0.30;;;20.70;99.90;;;;;;5075130;28;20429;-73
2023/07/14 09:32:04;;;;;;;0.40;0.40;;;21.00;99.90;;;;;;5075850;28;20042;-72
2023/07/14 09:34:37;;;;;;;0.30;0.30;;;21.20;99.90;;;;;;5075692;28;20041;-73
2023/07/14 09:37:22;;;;;;;0.20;0.20;;;21.40;99.90;;;;;;5076388;28;20086;-72
2023/07/14 09:39:55;;;;;;;0.55;0.40;;;21.60;99.90;;;;;;5076307;28;20415;-73
2023/07/14 09:42:31;;;;;;;0.38;0.38;;;21.60;99.90;;;;;;5075997;28;20047;-72
2023/07/14 09:45:04;;;;;;;0.30;0.30;;;21.60;99.90;;;;;;5075779;28;20062;-73
2023/07/14 09:47:31;;;;;;;0.50;0.50;;;21.60;99.90;;;;;;5075666;28;20472;-72
2023/07/14 09:49:59;;;;;;;0.20;0.20;;;21.50;99.90;;;;;;5075750;28;20056;-72
2023/07/14 09:52:28;;;;;;;0.40;0.40;;;21.50;99.90;;;;;;5076025;28;20040;-73
2023/07/14 09:54:59;;;;;;;0.40;0.40;;;21.40;99.90;;;;;;5075647;28;20083;-72
2023/07/14 09:57:28;;;;;;;0.20;0.20;;;21.50;99.90;;;;;;5075560;28;20036;-73
2023/07/14 10:00:00;;;;;;;0.40;0.40;;;21.70;99.90;;;;;;5075810;28;20036;-73
2023/07/14 10:02:31;;;;;;;1.17;0.30;;;21.90;99.90;;;;;;5075343;28;20032;-73
2023/07/14 10:05:26;;;;;;;0.30;0.30;;;22.20;99.90;;;;;;5075879;28;20052;-73
2023/07/14 10:07:53;;;;;;;0.40;0.40;;;22.30;99.90;;;;;;5055481;28;20064;-75
2023/07/14 10:10:26;;;;;;;0.40;0.40;;;22.30;99.90;;;;;;5074273;28;20048;-74
2023/07/14 10:12:52;;;;;;;0.32;0.22;;;22.40;99.90;;;;;;5084763;28;20042;-75
2023/07/14 10:15:30;;;;;;;0.20;0.20;;;22.50;99.90;;;;;;5095382;28;20125;-72
2023/07/14 10:18:02;;;;;;;0.35;0.35;;;22.60;99.90;;;;;;5095117;28;20621;-73
2023/07/14 10:20:31;;;;;;;0.30;0.30;;;22.90;99.90;;;;;;5095399;28;20124;-78
2023/07/14 10:22:58;;;;;;;0.40;0.40;;;23.10;99.90;;;;;;5094169;28;20047;-72
2023/07/14 10:25:27;;;;;;;0.20;0.20;;;23.20;99.90;;;;;;5095421;28;20044;-72
2023/07/14 10:27:59;;;;;;;0.30;0.30;;;23.30;99.90;;;;;;5095084;28;20548;-72
2023/07/14 10:30:52;;;;;;;0.40;0.40;;;23.30;99.90;;;;;;5095181;28;20106;-71
2023/07/14 10:33:25;;;;;;;0.47;0.47;;;23.30;99.90;;;;;;5095209;28;20051;-71
2023/07/14 10:36:04;;;;;;;0.28;0.28;;;23.40;99.90;;;;;;5095294;28;20050;-71
2023/07/14 10:38:35;;;;;;;0.22;0.22;;;23.40;99.90;;;;;;5094919;28;20040;-70
2023/07/14 10:41:07;;;;;;;0.20;0.20;;;23.30;99.90;;;;;;5095145;28;20101;-70
2023/07/14 10:43:36;;;;;;;0.30;0.30;;;23.60;99.90;;;;;;5094772;28;20032;-71
2023/07/14 10:46:25;;;;;;;0.30;0.30;;;23.20;99.90;;;;;;5094219;28;20032;-70
2023/07/14 10:49:05;;;;;;;0.30;0.30;;;23.10;99.90;;;;;;5094216;28;20044;-71
2023/07/14 10:51:45;;;;;;;0.28;0.28;;;23.10;99.90;;;;;;5094478;28;20032;-71
2023/07/14 10:54:23;;;;;;;0.30;0.30;;;23.00;99.90;;;;;;5094657;28;20036;-72
2023/07/14 10:57:00;;;;;;;0.38;0.30;;;22.90;99.90;;;;;;5094777;28;20028;-72
2023/07/14 10:59:35;;;;;;;0.30;0.30;;;22.90;99.90;;;;;;5094347;28;20040;-73
2023/07/14 11:02:21;;;;;;;0.28;0.28;;;22.90;99.90;;;;;;5094293;28;20044;-73
2023/07/14 11:04:54;;;;;;;0.50;0.50;;;22.80;99.90;;;;;;5094414;28;20085;-72
2023/07/14 11:07:30;;;;;;;0.40;0.40;;;22.80;99.90;;;;;;5094501;28;20036;-73
2023/07/14 11:10:01;;;;;;;0.30;0.30;;;22.80;99.90;;;;;;5094481;28;20056;-72
2023/07/14 11:12:49;;;;;;;0.20;0.20;;;23.00;99.90;;;;;;5094188;28;20385;-72
2023/07/14 11:15:29;;;;;;;0.30;0.30;;;23.20;99.90;;;;;;5094308;28;20043;-72
2023/07/14 11:18:06;;;;;;;0.30;0.30;;;23.30;99.90;;;;;;5094303;28;20048;-73
2023/07/14 11:20:35;;;;;;;;;;;23.30;99.90;;;;;;5094077;28;20036;-73
2023/07/14 11:23:38;;;;;;;0.60;0.43;;;23.30;99.90;;;;;;5094119;28;19915;-73
2023/07/14 11:26:18;;;;;;;0.30;0.30;;;23.30;99.90;;;;;;5094099;28;20118;-73
2023/07/14 11:28:56;;;;;;;0.47;0.47;;;23.10;99.90;;;;;;5093984;28;20036;-72
2023/07/14 11:31:30;;;;;;;0.80;0.45;;;23.00;99.90;;;;;;5093923;28;20040;-73
2023/07/14 11:34:23;;;;;;;0.30;0.30;;;23.00;99.90;;;;;;5093893;28;20493;-72
2023/07/14 11:37:34;;;;;;;0.73;0.73;;;23.20;99.90;;;;;;5093913;28;20047;-73
2023/07/14 11:40:06;;;;;;;0.30;0.30;;;23.40;99.90;;;;;;5093417;28;20032;-74
2023/07/14 11:42:35;;;;;;;0.38;0.38;;;23.80;99.90;;;;;;5092383;28;20078;-78
2023/07/14 11:45:11;;;;;;;0.32;0.32;;;23.90;99.90;;;;;;5093888;28;20048;-81
2023/07/14 11:47:41;;;;;;;0.20;0.20;;;24.00;99.90;;;;;;5093602;28;20063;-73
2023/07/14 11:50:16;;;;;;;3.22;0.57;;;24.10;99.90;;;;;;5093515;28;20184;-74
2023/07/14 11:52:56;;;;;;;0.68;0.68;;;24.40;99.90;;;;;;5093617;28;20484;-74
2023/07/14 11:55:24;;;;;;;0.30;0.30;;;24.50;99.90;;;;;;5093594;28;20495;-74
2023/07/14 11:58:00;;;;;;;0.20;0.20;;;24.60;99.90;;;;;;5093227;28;20553;-74
2023/07/14 12:00:38;;;;;;;0.20;0.20;;;24.60;99.90;;;;;;5093701;28;20043;-74
2023/07/14 12:03:09;;;;;;;0.63;0.30;;;24.50;99.90;;;;;;5092033;28;20044;-74
2023/07/14 12:05:39;;;;;;;0.28;0.28;;;24.40;99.90;;;;;;5093923;28;20044;-74
2023/07/14 12:08:05;;;;;;;0.30;0.30;;;24.50;99.90;;;;;;5093578;28;20040;-74
2023/07/14 12:10:51;;;;;;;0.70;0.57;;;24.70;99.90;;;;;;5092312;28;20097;-74
2023/07/14 12:13:22;;;;;;;0.38;0.38;;;24.70;99.90;;;;;;5092891;28;20154;-74
2023/07/14 12:15:54;;;;;;;0.20;0.20;;;24.80;99.90;;;;;;5093487;28;20044;-74
2023/07/14 12:18:32;;;;;;;0.30;0.30;;;24.80;99.90;;;;;;5093500;28;20134;-74
2023/07/14 12:21:23;;;;;;;0.30;0.30;;;24.80;99.90;;;;;;5093209;28;20380;-74
2023/07/14 12:23:51;;;;;;;0.25;0.25;;;24.60;99.90;;;;;;5093006;28;20093;-74
2023/07/14 12:26:49;;;;;;;0.38;0.38;;;24.60;99.90;;;;;;5093192;28;20110;-74
2023/07/14 12:29:16;;;;;;;0.30;0.30;;;24.60;99.90;;;;;;5093683;28;20051;-74
2023/07/14 12:31:47;;;;;;;0.30;0.30;;;24.70;99.90;;;;;;5093107;28;20437;-76
2023/07/14 12:34:17;;;;;;;0.22;0.22;;;24.80;99.90;;;;;;5095996;28;20044;-76
2023/07/14 12:36:43;;;;;;;0.28;0.28;;;24.90;99.90;;;;;;5097472;28;20044;-75
2023/07/14 12:39:09;;;;;;;0.20;0.20;;;24.90;99.90;;;;;;5097340;28;20063;-77
2023/07/14 12:41:41;;;;;;;0.20;0.20;;;24.90;99.90;;;;;;5096942;28;20073;-74
2023/07/14 12:44:18;;;;;;;0.30;0.30;;;24.80;99.90;;;;;;5097255;28;20118;-74
2023/07/14 12:46:43;;;;;;;;;;;24.60;99.90;;;;;;5097379;28;20036;-75
2023/07/14 12:49:32;;;;;;;0.20;0.20;;;24.50;99.90;;;;;;5096839;28;20007;-73
2023/07/14 12:52:03;;;;;;;0.30;0.30;;;24.50;99.90;;;;;;5096886;28;20431;-79
2023/07/14 12:54:28;;;;;;;0.20;0.20;;;24.40;99.90;;;;;;5079743;28;20039;-75
2023/07/14 12:56:58;;;;;;;0.30;0.30;;;24.20;99.90;;;;;;5096929;28;20043;-76
2023/07/14 12:59:23;;;;;;;0.32;0.32;;;24.10;99.90;;;;;;5096941;28;20036;-74
2023/07/14 13:01:50;;;;;;;0.20;0.20;;;24.00;99.90;;;;;;5096883;28;20036;-74
2023/07/14 13:04:18;;;;;;;;;;;24.10;99.90;;;;;;5097332;28;20036;-73